Time;durP1;ratioP1;P1;durP2;ratioP2;P2;SDS_P1;SDS_P2;PMS_P1;PMS_P2;Temp;Humidity;BMP_temperature;BMP_pressure;BME280_temperature;BME280_humidity;BME280_pressure;Samples;Min_cycle;Max_cycle;Signal;HPM_P1;HPM_P2
2022/03/11 00:00:58;;;;;;;;;14.00;10.00;;;;;-2.84;49.99;101146.75;6285443;20;3498141;-45
2022/03/11 00:03:27;;;;;;;;;15.67;7.00;;;;;-2.76;51.82;101134.66;6283059;20;3501295;-45
2022/03/11 00:05:55;;;;;;;;;15.00;15.00;;;;;-2.83;50.22;101135.41;6286498;20;2814855;-45
2022/03/11 00:08:23;;;;;;;;;19.00;18.00;;;;;-2.85;49.78;101137.13;6316318;20;2831946;-44
2022/03/11 00:10:51;;;;;;;;;28.00;22.00;;;;;-3.09;49.80;101139.34;6282804;20;2852313;-47
2022/03/11 00:13:20;;;;;;;;;28.67;19.00;;;;;-2.79;49.81;101137.19;6283347;20;3575221;-48
2022/03/11 00:15:48;;;;;;;;;22.00;19.00;;;;;-3.11;50.13;101135.84;6319662;20;2827351;-48
2022/03/11 00:18:18;;;;;;;;;22.33;19.00;;;;;-3.25;50.35;101146.94;6314370;20;3558564;-44
2022/03/11 00:20:47;;;;;;;;;24.00;21.67;;;;;-3.45;50.56;101138.69;6315048;20;3561695;-44
2022/03/11 00:23:15;;;;;;;;;12.50;10.00;;;;;-3.27;50.02;101127.63;6314830;20;2769136;-48
2022/03/11 00:25:43;;;;;;;;;25.00;18.00;;;;;-3.14;50.25;101145.38;6316278;20;2841986;-45
2022/03/11 00:28:14;;;;;;;;;25.83;19.17;;;;;-3.35;50.13;101136.25;6319690;20;1831622;-47
2022/03/11 00:30:43;;;;;;;;;25.33;19.33;;;;;-3.38;50.00;101136.19;6281096;20;2817962;-46
2022/03/11 00:33:11;;;;;;;;;20.00;12.00;;;;;-3.56;50.55;101130.59;6312611;20;2795050;-45
2022/03/11 00:35:39;;;;;;;;;18.00;12.00;;;;;-3.40;50.23;101126.53;6282471;20;2804448;-44
2022/03/11 00:38:09;;;;;;;;;18.80;18.20;;;;;-3.46;50.46;101126.41;6304494;20;2828515;-46
2022/03/11 00:40:36;;;;;;;;;24.00;19.00;;;;;-3.17;50.17;101122.56;6282035;20;2836711;-45
2022/03/11 00:43:06;;;;;;;;;14.40;12.80;;;;;-3.51;50.44;101128.94;6309691;20;2794025;-46
2022/03/11 00:45:36;;;;;;;;;20.40;20.20;;;;;-3.46;50.40;101129.94;6308317;20;2815919;-44
2022/03/11 00:48:04;;;;;;;;;17.00;10.00;;;;;-3.50;50.51;101133.38;6283923;20;2793003;-45
2022/03/11 00:50:32;;;;;;;;;19.00;15.00;;;;;-3.66;50.71;101123.41;6283048;20;2819111;-47
2022/03/11 00:53:02;;;;;;;;;27.00;19.67;;;;;-3.75;51.09;101117.13;6313275;20;3571070;-45
2022/03/11 00:55:30;;;;;;;;;13.25;10.50;;;;;-3.42;50.58;101117.72;6333564;20;1828001;-47
2022/03/11 00:58:00;;;;;;;;;26.20;24.00;;;;;-3.46;49.98;101116.81;6338832;20;2825330;-47
2022/03/11 01:00:28;;;;;;;;;20.00;15.50;;;;;-3.58;50.45;101122.72;6283074;20;2803385;-48
2022/03/11 01:02:57;;;;;;;;;23.00;15.00;;;;;-2.97;51.64;101130.81;6314606;20;3559604;-46
2022/03/11 01:05:25;;;;;;;;;15.50;12.50;;;;;-2.70;48.50;101130.34;6313119;20;2794033;-46
2022/03/11 01:07:57;;;;;;;;;17.33;15.00;;;;;-2.62;48.33;101130.47;6350972;20;1826911;-48
2022/03/11 01:10:26;;;;;;;;;16.00;14.00;;;;;-2.49;47.72;101126.28;6283175;20;2796282;-48
2022/03/11 01:12:54;;;;;;;;;21.00;12.00;;;;;-2.69;47.94;101126.84;6281936;20;2802429;-48
2022/03/11 01:15:22;;;;;;;;;16.50;13.00;;;;;-2.64;48.25;101116.41;6281224;20;2798148;-46
2022/03/11 01:17:50;;;;;;;;;15.00;12.50;;;;;-3.10;49.06;101115.69;6311561;20;2805441;-45
2022/03/11 01:20:17;;;;;;;;;14.67;10.33;;;;;-2.87;48.81;101113.44;6310884;20;3501268;-50
2022/03/11 01:22:45;;;;;;;;;13.00;13.00;;;;;-3.01;48.86;101123.72;6315121;20;2793172;-48
2022/03/11 01:25:13;;;;;;;;;18.50;16.00;;;;;-2.88;48.82;101122.19;6285408;20;2827360;-45
2022/03/11 01:27:41;;;;;;;;;15.33;10.67;;;;;-2.85;48.89;101110.84;6283474;20;3499331;-46
2022/03/11 01:30:13;;;;;;;;;16.50;13.00;;;;;-2.82;48.51;101113.50;6310463;20;2787761;-46
2022/03/11 01:32:44;;;;;;;;;14.00;13.00;;;;;-3.09;48.91;101114.81;6281894;20;2790020;-45
2022/03/11 01:35:12;;;;;;;;;9.33;6.33;;;;;-3.16;49.20;101116.47;6314600;20;3476259;-45
2022/03/11 01:37:40;;;;;;;;;15.00;12.00;;;;;-2.91;49.07;101107.25;6313335;20;2773342;-45
2022/03/11 01:40:10;;;;;;;;;10.00;9.00;;;;;-3.31;49.45;101103.06;6312388;20;2753377;-44
2022/03/11 01:42:39;;;;;;;;;14.00;10.00;;;;;-3.50;49.90;101104.50;6310862;20;2793383;-47
2022/03/11 01:45:10;;;;;;;;;16.00;12.00;;;;;-3.19;49.41;101115.53;6350847;20;1818007;-44
2022/03/11 01:47:38;;;;;;;;;17.00;12.50;;;;;-3.34;49.34;101111.78;6292839;20;1835354;-47
2022/03/11 01:50:07;;;;;;;;;10.67;7.00;;;;;-3.09;48.74;101107.81;6312237;20;3482866;-44
2022/03/11 01:52:37;;;;;;;;;23.00;15.00;;;;;-3.27;48.85;101106.63;6313454;20;2814871;-46
2022/03/11 01:55:07;;;;;;;;;15.50;13.75;;;;;-3.33;49.16;101108.28;6298755;20;1839888;-46
2022/03/11 01:57:38;;;;;;;;;15.00;15.00;;;;;-3.34;50.54;101106.53;6313930;20;2810678;-47
2022/03/11 02:00:09;;;;;;;;;16.75;10.00;;;;;-3.49;50.51;101098.38;6297536;20;1837899;-48
2022/03/11 02:02:37;;;;;;;;;15.00;13.50;;;;;-3.06;51.32;101108.75;6314110;20;2786761;-50
2022/03/11 02:05:08;;;;;;;;;19.00;15.00;;;;;-3.19;50.87;101111.16;6351553;20;1821118;-47
2022/03/11 02:07:37;;;;;;;;;19.50;14.00;;;;;-3.37;50.31;101119.59;6296658;20;1852453;-45
2022/03/11 02:10:08;;;;;;;;;19.00;15.00;;;;;-2.96;49.26;101119.41;6345417;20;1829436;-46
2022/03/11 02:12:36;;;;;;;;;12.00;9.33;;;;;-2.84;48.53;101117.84;6279972;20;3485693;-45
2022/03/11 02:15:07;;;;;;;;;13.67;13.67;;;;;-3.21;49.06;101114.59;6312858;20;3540876;-46
2022/03/11 02:17:36;;;;;;;;;7.50;7.50;;;;;-3.40;49.77;101106.41;6301000;20;1823204;-47
2022/03/11 02:20:05;;;;;;;;;20.00;9.00;;;;;-4.03;50.92;101110.47;6310757;20;2794167;-48
2022/03/11 02:22:39;;;;;;;;;18.00;13.00;;;;;-3.84;50.85;101102.97;6281553;20;2810793;-49
2022/03/11 02:25:09;;;;;;;;;17.00;15.00;;;;;-4.04;50.88;101115.66;6279214;20;2809636;-48
2022/03/11 02:27:39;;;;;;;;;18.25;14.50;;;;;-4.00;51.44;101104.41;6297638;20;1838926;-48
2022/03/11 02:30:20;;;;;;;;;15.00;10.00;;;;;-3.94;51.02;101101.00;6310699;20;2786744;-48
2022/03/11 02:32:49;;;;;;;;;12.00;10.00;;;;;-4.21;51.68;101102.22;6310020;20;3502311;-48
2022/03/11 02:35:19;;;;;;;;;22.00;18.00;;;;;-4.06;51.52;101096.38;6280245;20;2837868;-47
2022/03/11 02:37:48;;;;;;;;;19.80;14.60;;;;;-3.87;51.04;101101.16;6303990;20;2813792;-48
2022/03/11 02:40:16;;;;;;;;;18.00;15.00;;;;;-3.70;50.88;101105.84;6280771;20;2804470;-51
2022/03/11 02:42:44;;;;;;;;;18.00;12.00;;;;;-3.51;50.70;101107.94;6312889;20;2796318;-48
2022/03/11 02:45:12;;;;;;;;;16.00;9.50;;;;;-3.24;49.24;101118.06;6312405;20;2787745;-47
2022/03/11 02:47:40;;;;;;;;;16.00;14.00;;;;;-3.17;49.39;101117.31;6281260;20;2791021;-48
2022/03/11 02:50:10;;;;;;;;;13.00;12.00;;;;;-2.99;48.35;101115.88;6349295;20;1817015;-48
2022/03/11 02:52:39;;;;;;;;;17.50;12.00;;;;;-3.44;50.43;101109.84;6299967;20;1834768;-47
2022/03/11 02:55:08;;;;;;;;;15.75;12.50;;;;;-3.25;49.06;101112.81;6328322;20;1835802;-46
2022/03/11 02:57:36;;;;;;;;;27.50;13.50;;;;;-3.51;49.50;101107.06;6308420;20;2837878;-46
2022/03/11 03:00:08;;;;;;;;;15.50;13.83;;;;;-3.34;49.65;101103.91;6312033;20;1846156;-47
2022/03/11 03:02:36;;;;;;;;;17.00;13.67;;;;;-3.59;50.22;101093.81;6274895;20;3516015;-47
2022/03/11 03:05:06;;;;;;;;;25.00;18.00;;;;;-3.55;49.92;101107.03;6308698;20;2836772;-49
2022/03/11 03:07:34;;;;;;;;;23.00;13.00;;;;;-3.88;51.99;101112.50;6276634;20;2814877;-50
2022/03/11 03:10:03;;;;;;;;;18.00;12.00;;;;;-3.70;50.28;101111.09;6276250;20;2790124;-49
2022/03/11 03:12:31;;;;;;;;;18.00;18.00;;;;;-3.47;49.77;101103.66;6306938;20;2829524;-46
2022/03/11 03:15:01;;;;;;;;;18.40;17.60;;;;;-4.02;50.90;101113.97;6297987;20;2826285;-48
2022/03/11 03:17:30;;;;;;;;;21.33;18.00;;;;;-4.13;51.68;101110.22;6278149;20;3562719;-50
2022/03/11 03:20:03;;;;;;;;;22.00;18.00;;;;;-4.22;51.47;101117.03;6307231;20;3568983;-49
2022/03/11 03:22:35;;;;;;;;;19.17;15.00;;;;;-4.68;53.03;101116.03;6344499;20;1841771;-47
2022/03/11 03:25:05;;;;;;;;;9.33;9.33;;;;;-4.82;53.26;101101.69;6275587;20;3477389;-49
2022/03/11 03:27:33;;;;;;;;;14.00;11.00;;;;;-4.66;53.15;101098.59;6306945;20;2786697;-48
2022/03/11 03:30:06;;;;;;;;;15.50;15.00;;;;;-4.51;53.30;101105.03;6308864;20;2814951;-49
2022/03/11 03:32:35;;;;;;;;;14.00;12.50;;;;;-4.58;52.74;101108.34;6279672;20;2790902;-48
2022/03/11 03:35:03;;;;;;;;;13.00;13.00;;;;;-4.58;52.58;101106.66;6308036;20;2780452;-47
2022/03/11 03:37:30;;;;;;;;;15.50;9.00;;;;;-4.56;53.27;101114.53;6307622;20;2781736;-47
2022/03/11 03:39:58;;;;;;;;;16.00;15.50;;;;;-4.40;52.64;101114.00;6309938;20;2808569;-48
2022/03/11 03:42:29;;;;;;;;;15.33;13.67;;;;;-4.75;52.83;101108.84;6319520;20;1825284;-47
2022/03/11 03:44:57;;;;;;;;;22.00;15.00;;;;;-4.93;54.12;101108.41;6277861;20;2823169;-48
2022/03/11 03:47:25;;;;;;;;;13.00;13.00;;;;;-4.96;54.61;101108.34;6281109;20;2820079;-45
2022/03/11 03:49:52;;;;;;;;;13.00;10.00;;;;;-4.91;55.67;101111.97;6278542;20;2792932;-49
2022/03/11 03:52:23;;;;;;;;;21.83;14.00;;;;;-4.82;59.61;101101.69;6346880;20;1825005;-48
2022/03/11 03:54:51;;;;;;;;;18.00;13.00;;;;;-4.87;56.19;101104.22;6277921;20;2810685;-47
2022/03/11 03:57:19;;;;;;;;;15.50;14.00;;;;;-4.95;57.03;101104.88;6276033;20;2791918;-46
2022/03/11 03:59:47;;;;;;;;;21.50;14.00;;;;;-4.75;55.98;101102.75;6277416;20;2820175;-46
2022/03/11 04:02:14;;;;;;;;;13.00;13.00;;;;;-4.71;54.58;101115.06;6276120;20;2809756;-48
2022/03/11 04:04:46;;;;;;;;;24.33;16.50;;;;;-5.11;54.49;101111.47;6313777;20;1846137;-46
2022/03/11 04:07:14;;;;;;;;;17.00;14.50;;;;;-4.90;54.50;101111.09;6279718;20;2824262;-48
2022/03/11 04:09:42;;;;;;;;;16.00;16.00;;;;;-4.63;53.54;101113.50;6282619;20;2808641;-48
2022/03/11 04:12:11;;;;;;;;;17.33;15.00;;;;;-4.66;53.05;101119.56;6284811;20;2823391;-47
2022/03/11 04:14:39;;;;;;;;;16.75;12.75;;;;;-4.16;52.10;101128.50;6333025;20;1837805;-49
2022/03/11 04:17:07;;;;;;;;;21.50;12.50;;;;;-4.46;51.95;101132.22;6312337;20;2791979;-48
2022/03/11 04:19:35;;;;;;;;;19.50;15.00;;;;;-4.36;51.88;101131.59;6311362;20;2812776;-48
2022/03/11 04:22:04;;;;;;;;;15.75;10.50;;;;;-4.53;52.33;101140.78;6303295;20;1843050;-47
2022/03/11 04:24:33;;;;;;;;;30.33;23.00;;;;;-4.88;53.14;101123.41;6315692;20;3577380;-47
2022/03/11 04:27:01;;;;;;;;;21.50;15.00;;;;;-5.02;53.94;101135.28;6316881;20;2821113;-47
2022/03/11 04:29:29;;;;;;;;;26.00;18.50;;;;;-5.36;55.10;101129.19;6282181;20;2838797;-51
2022/03/11 04:31:57;;;;;;;;;14.00;10.00;;;;;-5.51;55.61;101136.63;6285126;20;2786704;-47
2022/03/11 04:34:25;;;;;;;;;22.00;19.00;;;;;-5.57;55.46;101139.97;6313054;20;2833708;-47
2022/03/11 04:36:53;;;;;;;;;17.50;12.50;;;;;-5.48;55.97;101133.19;6280150;20;2807650;-52
2022/03/11 04:39:21;;;;;;;;;27.00;18.00;;;;;-5.46;57.47;101141.97;6283226;20;2838216;-48
2022/03/11 04:41:50;;;;;;;;;27.67;19.33;;;;;-5.55;56.72;101150.47;6283140;20;3587747;-46
2022/03/11 04:44:19;;;;;;;;;24.00;15.33;;;;;-5.19;58.91;101141.81;6316583;20;3574205;-48
2022/03/11 04:46:47;;;;;;;;;15.00;9.00;;;;;-5.30;59.58;101137.19;6314162;20;2777353;-44
2022/03/11 04:49:18;;;;;;;;;18.33;18.00;;;;;-5.39;56.17;101143.91;6351702;20;1827212;-45
2022/03/11 04:51:46;;;;;;;;;22.00;15.00;;;;;-5.50;56.85;101133.16;6284300;20;2817043;-43
2022/03/11 04:54:14;;;;;;;;;23.00;12.00;;;;;-5.48;56.48;101133.19;6285286;20;2810721;-44
2022/03/11 04:56:42;;;;;;;;;24.50;19.00;;;;;-5.44;55.96;101135.94;6314553;20;2829502;-44
2022/03/11 04:59:09;;;;;;;;;29.50;22.00;;;;;-5.70;56.16;101140.47;6283679;20;2831536;-45
2022/03/11 05:01:37;;;;;;;;;17.00;17.00;;;;;-5.23;55.25;101146.09;6281822;20;2825424;-45
2022/03/11 05:04:05;;;;;;;;;6.50;5.00;;;;;-5.09;55.40;101149.94;6279737;20;2751434;-44
2022/03/11 05:06:34;;;;;;;;;16.00;15.00;;;;;-5.12;55.05;101155.09;6309962;20;3560668;-45
2022/03/11 05:09:05;;;;;;;;;22.33;22.33;;;;;-5.45;55.86;101164.66;6349961;20;2552328;-45
2022/03/11 05:11:33;;;;;;;;;25.33;22.67;;;;;-5.27;55.83;101170.41;6280722;20;3569002;-44
2022/03/11 05:14:02;;;;;;;;;25.67;21.00;;;;;-5.32;55.82;101162.44;6312813;20;3580445;-44
2022/03/11 05:16:31;;;;;;;;;25.33;20.33;;;;;-5.22;56.05;101157.44;6313662;20;3559588;-44
2022/03/11 05:19:00;;;;;;;;;9.25;6.25;;;;;-5.44;56.39;101156.88;6331639;20;1844126;-47
2022/03/11 05:21:30;;;;;;;;;22.00;17.60;;;;;-5.41;56.68;101161.31;6336411;20;2829441;-45
2022/03/11 05:23:59;;;;;;;;;28.67;27.67;;;;;-5.77;58.29;101162.94;6284068;20;3606470;-45
2022/03/11 05:26:29;;;;;;;;;26.33;19.00;;;;;-5.45;58.84;101162.97;6283232;20;3583556;-47
2022/03/11 05:28:59;;;;;;;;;22.00;18.00;;;;;-5.47;57.66;101166.38;6312929;20;3562791;-45
2022/03/11 05:31:29;;;;;;;;;16.00;12.00;;;;;-5.09;60.27;101164.75;6312871;20;2780451;-45
2022/03/11 05:33:57;;;;;;;;;22.50;18.50;;;;;-4.63;55.70;101161.56;6314281;20;2833625;-46
2022/03/11 05:36:25;;;;;;;;;26.00;20.00;;;;;-4.71;56.10;101172.72;6283942;20;2836780;-44
2022/03/11 05:38:57;;;;;;;;;26.67;21.00;;;;;-4.63;54.98;101176.41;6317654;20;1829475;-47
2022/03/11 05:41:26;;;;;;;;;26.00;18.50;;;;;-4.60;54.26;101178.22;6282839;20;2835722;-45
2022/03/11 05:43:55;;;;;;;;;23.67;19.00;;;;;-4.29;54.48;101178.06;6280469;20;2836310;-49
2022/03/11 05:46:23;;;;;;;;;27.00;22.00;;;;;-4.56;53.99;101180.03;6316247;20;2816893;-48
2022/03/11 05:48:52;;;;;;;;;30.67;24.67;;;;;-4.47;54.34;101175.03;6314348;20;3602314;-44
2022/03/11 05:51:19;;;;;;;;;22.00;15.00;;;;;-4.51;54.15;101176.69;6314003;20;2807537;-45
2022/03/11 05:53:48;;;;;;;;;39.67;21.33;;;;;-4.12;53.54;101190.69;6283710;20;3592963;-45
2022/03/11 05:56:18;;;;;;;;;21.20;17.60;;;;;-3.57;52.61;101186.59;6302361;20;2835789;-44
2022/03/11 05:58:50;;;;;;;;;25.40;18.40;;;;;-3.38;51.66;101187.84;6307075;20;2840882;-44
2022/03/11 06:01:20;;;;;;;;;25.40;21.80;;;;;-3.36;51.39;101192.25;6305553;20;2831630;-44
2022/03/11 06:03:49;;;;;;;;;24.67;22.00;;;;;-3.07;50.57;101196.31;6282441;20;3557543;-45
2022/03/11 06:06:18;;;;;;;;;31.00;21.33;;;;;-2.50;49.48;101195.50;6313571;20;3584695;-47
2022/03/11 06:08:46;;;;;;;;;21.00;18.00;;;;;-2.44;50.20;101196.50;6312500;20;2832585;-46
2022/03/11 06:11:18;;;;;;;;;26.00;22.00;;;;;-2.75;51.95;101202.13;6280679;20;3560781;-46
2022/03/11 06:13:49;;;;;;;;;22.00;18.67;;;;;-3.07;52.50;101202.44;6348097;20;1837777;-44
2022/03/11 06:16:18;;;;;;;;;13.50;10.00;;;;;-3.25;52.28;101199.47;6298990;20;1844084;-48
2022/03/11 06:18:46;;;;;;;;;23.00;19.00;;;;;-3.62;52.49;101206.63;6310124;20;2830693;-45
2022/03/11 06:21:17;;;;;;;;;24.83;20.00;;;;;-3.23;53.76;101209.16;6303895;20;2835720;-45
2022/03/11 06:23:44;;;;;;;;;29.50;26.00;;;;;-3.77;52.34;101215.03;6312568;20;2841972;-45
2022/03/11 06:26:12;;;;;;;;;10.00;10.00;;;;;-3.43;51.73;101210.50;6278296;20;3500242;-44
2022/03/11 06:28:41;;;;;;;;;20.67;14.67;;;;;-2.95;51.23;101207.91;6311332;20;3541941;-46
2022/03/11 06:31:11;;;;;;;;;14.50;11.50;;;;;-3.69;52.27;101208.22;6327473;20;1854478;-45
2022/03/11 06:33:40;;;;;;;;;33.00;23.00;;;;;-2.94;50.78;101216.69;6312303;20;3592955;-44
2022/03/11 06:36:09;;;;;;;;;28.00;24.00;;;;;-3.16;50.55;101212.75;6311518;20;3572096;-44
2022/03/11 06:38:38;;;;;;;;;30.33;26.33;;;;;-2.52;50.06;101210.41;6276661;20;3579439;-45
2022/03/11 06:41:07;;;;;;;;;25.00;21.33;;;;;-2.46;49.84;101216.63;6314066;20;3565981;-43
2022/03/11 06:43:36;;;;;;;;;23.00;21.67;;;;;-2.65;49.80;101223.31;6311545;20;3577334;-44
2022/03/11 06:46:03;;;;;;;;;27.50;21.00;;;;;-2.58;50.00;101213.81;6313843;20;2831567;-43
2022/03/11 06:48:31;;;;;;;;;12.00;9.00;;;;;-2.66;50.08;101218.94;6311636;20;2778528;-42
2022/03/11 06:51:04;;;;;;;;;19.20;13.80;;;;;-2.31;48.98;101215.13;6337581;20;2824289;-42
2022/03/11 06:53:33;;;;;;;;;25.50;21.00;;;;;-2.49;49.51;101226.22;6280775;20;2826276;-43
2022/03/11 06:56:04;;;;;;;;;107.00;72.33;;;;;-1.79;50.38;101221.09;6280232;20;3677304;-45
2022/03/11 06:58:33;;;;;;;;;10.50;8.00;;;;;-1.91;48.65;101221.84;6297165;20;1831595;-43
2022/03/11 07:01:03;;;;;;;;;19.67;15.00;;;;;-1.72;48.75;101222.97;6308470;20;2829446;-43
2022/03/11 07:03:32;;;;;;;;;21.00;10.00;;;;;-1.42;48.01;101232.09;6327282;20;1829043;-43
2022/03/11 07:06:01;;;;;;;;;20.00;20.00;;;;;-1.13;49.63;101227.22;6312337;20;3573177;-43
2022/03/11 07:08:30;;;;;;;;;36.33;27.67;;;;;-1.65;47.05;101229.22;6311833;20;3601310;-44
2022/03/11 07:10:59;;;;;;;;;31.00;19.33;;;;;-1.01;46.51;101234.34;6278472;20;3591951;-44
2022/03/11 07:13:27;;;;;;;;;28.00;17.50;;;;;0.73;42.47;101239.97;6313008;20;2836890;-44
2022/03/11 07:15:57;;;;;;;;;17.33;13.33;;;;;0.97;41.30;101247.09;6277904;20;3520143;-45
2022/03/11 07:18:25;;;;;;;;;22.50;17.00;;;;;-0.66;42.16;101247.88;6314226;20;2829582;-45
2022/03/11 07:20:53;;;;;;;;;8.67;8.67;;;;;-0.91;42.63;101246.75;6277535;20;3472260;-45
2022/03/11 07:23:28;;;;;;;;;11.50;11.50;;;;;-0.98;43.20;101251.06;6311033;20;2787813;-46
2022/03/11 07:25:56;;;;;;;;;30.50;27.00;;;;;-0.59;43.11;101240.91;6283179;20;2831528;-43
2022/03/11 07:28:27;;;;;;;;;26.67;20.33;;;;;-0.99;43.60;101244.03;6277665;20;2824324;-45
2022/03/11 07:30:58;;;;;;;;;19.83;14.33;;;;;-1.09;43.62;101251.84;6350053;20;1812797;-44
2022/03/11 07:33:28;;;;;;;;;17.80;15.20;;;;;-0.87;43.75;101243.28;6304652;20;2828430;-44
2022/03/11 07:35:56;;;;;;;;;33.00;28.67;;;;;-0.43;43.31;101245.44;6277774;20;3585792;-49
2022/03/11 07:38:30;;;;;;;;;24.00;19.67;;;;;-0.85;43.37;101236.25;6276321;20;3554817;-47
2022/03/11 07:40:59;;;;;;;;;17.50;14.00;;;;;-0.17;42.11;101242.13;6310424;20;2798198;-49
2022/03/11 07:43:27;;;;;;;;;13.00;13.00;;;;;-0.09;42.38;101237.78;6315065;20;2791971;-46
2022/03/11 07:45:55;;;;;;;;;19.50;11.00;;;;;-0.18;42.36;101241.25;6287642;20;2792956;-47
2022/03/11 07:48:23;;;;;;;;;12.00;12.00;;;;;-0.74;43.46;101242.56;6283262;20;2774224;-43
2022/03/11 07:50:51;;;;;;;;;9.00;8.00;;;;;0.06;41.52;101245.81;6316914;20;2755441;-45
2022/03/11 07:53:20;;;;;;;;;22.33;19.33;;;;;-0.03;42.03;101235.19;6315409;20;3549215;-46
2022/03/11 07:55:50;;;;;;;;;14.60;10.40;;;;;-0.26;42.24;101238.56;6340086;20;2775280;-44
2022/03/11 07:58:21;;;;;;;;;16.67;14.00;;;;;0.61;40.48;101240.84;6285298;20;2798286;-49
2022/03/11 08:00:53;;;;;;;;;23.00;12.67;;;;;-0.02;40.56;101244.88;6313972;20;2803693;-45
2022/03/11 08:03:23;;;;;;;;;16.40;16.40;;;;;0.31;39.61;101238.91;6340751;20;2827340;-45
2022/03/11 08:05:52;;;;;;;;;25.00;17.00;;;;;-0.06;40.40;101236.03;6285308;20;3568978;-42
2022/03/11 08:08:21;;;;;;;;;16.60;14.40;;;;;0.50;40.01;101226.69;6340814;20;2821642;-43
2022/03/11 08:10:52;;;;;;;;;18.33;13.33;;;;;-0.15;40.00;101233.34;6286480;20;2823298;-44
2022/03/11 08:13:36;;;;;;;;;12.00;8.50;;;;;0.04;38.82;101231.72;6317165;20;2759737;-43
2022/03/11 08:16:04;;;;;;;;;9.00;9.00;;;;;0.59;38.23;101236.41;6314933;20;3461672;-47
2022/03/11 08:18:32;;;;;;;;;15.00;12.00;;;;;0.55;37.25;101235.50;6313049;20;2781600;-47
2022/03/11 08:21:02;;;;;;;;;13.00;11.00;;;;;0.94;36.30;101231.25;6315613;20;2790013;-49
2022/03/11 08:23:31;;;;;;;;;11.50;11.50;;;;;1.06;36.62;101218.06;6283685;20;2770178;-43
2022/03/11 08:26:00;;;;;;;;;11.80;11.20;;;;;1.24;36.78;101227.78;6308745;20;2780066;-47
2022/03/11 08:28:28;;;;;;;;;14.00;12.00;;;;;0.99;37.34;101225.97;6284176;20;2795046;-44
2022/03/11 08:30:57;;;;;;;;;31.00;23.50;;;;;1.18;37.26;101222.47;6284252;20;2831647;-45
2022/03/11 08:33:25;;;;;;;;;18.00;17.00;;;;;1.32;37.36;101225.16;6286283;20;2821201;-43
2022/03/11 08:36:11;;;;;;;;;14.00;12.00;;;;;1.75;37.03;101217.22;6280013;20;2785797;-43
2022/03/11 08:38:41;;;;;;;;;26.00;18.50;;;;;1.31;36.33;101218.94;6280601;20;2823367;-44
2022/03/11 08:41:10;;;;;;;;;17.67;14.00;;;;;1.39;37.04;101216.31;6281543;20;2821183;-44
2022/03/11 08:43:41;;;;;;;;;24.00;10.50;;;;;1.13;37.35;101212.75;6312028;20;2814899;-44
2022/03/11 08:46:11;;;;;;;;;14.67;10.83;;;;;1.14;37.30;101214.53;6320789;20;1812797;-42
2022/03/11 08:48:43;;;;;;;;;14.00;10.00;;;;;1.22;37.04;101210.16;6309010;20;2754013;-44
2022/03/11 08:51:11;;;;;;;;;15.00;15.00;;;;;0.42;37.95;101213.44;6315895;20;2800266;-43
2022/03/11 08:53:41;;;;;;;;;12.20;10.60;;;;;0.32;38.29;101224.84;6306124;20;2777441;-43
2022/03/11 08:56:09;;;;;;;;;19.00;11.50;;;;;0.74;37.73;101215.34;6280434;20;2793293;-43
2022/03/11 08:58:37;;;;;;;;;5.00;5.00;;;;;0.96;37.99;101216.25;6282127;20;3465891;-43
2022/03/11 09:01:05;;;;;;;;;3.33;1.00;;;;;0.78;37.12;101210.94;6312780;20;3457630;-44
2022/03/11 09:03:35;;;;;;;;;16.80;14.20;;;;;0.39;37.50;101208.13;6339220;20;2819444;-45
2022/03/11 09:06:05;;;;;;;;;16.00;10.20;;;;;1.44;36.83;101208.38;6309890;20;2790887;-45
2022/03/11 09:08:32;;;;;;;;;11.00;11.00;;;;;1.37;36.98;101198.69;6280969;20;2781524;-42
2022/03/11 09:11:05;;;;;;;;;17.00;17.00;;;;;1.81;36.63;101197.78;6313166;20;2821157;-44
2022/03/11 09:13:33;;;;;;;;;12.50;8.50;;;;;2.31;35.37;101202.97;6313899;20;2750291;-44
2022/03/11 09:16:02;;;;;;;;;24.00;15.00;;;;;1.86;36.90;101194.25;6282529;20;2814863;-43
2022/03/11 09:18:30;;;;;;;;;7.33;4.00;;;;;1.16;37.01;101186.31;6307262;20;3465855;-42
2022/03/11 09:20:58;;;;;;;;;15.00;13.00;;;;;2.90;35.35;101194.72;6284808;20;2801435;-44
2022/03/11 09:23:28;;;;;;;;;11.20;8.80;;;;;1.94;36.56;101189.81;6310148;20;2769044;-43
2022/03/11 09:25:56;;;;;;;;;17.00;13.00;;;;;2.02;36.27;101195.09;6314895;20;2802311;-44
2022/03/11 09:28:24;;;;;;;;;22.00;15.50;;;;;2.64;35.76;101188.69;6288522;20;2810665;-43
2022/03/11 09:30:52;;;;;;;;;12.67;12.67;;;;;1.80;35.36;101191.63;6286827;20;2807749;-44
2022/03/11 09:33:21;;;;;;;;;23.00;23.00;;;;;2.45;34.82;101186.13;6316479;20;2500354;-45
2022/03/11 09:35:49;;;;;;;;;21.50;14.00;;;;;2.36;34.18;101176.44;6287786;20;2806520;-43
2022/03/11 09:38:16;;;;;;;;;19.50;9.00;;;;;3.00;33.92;101177.88;6280044;20;2785809;-43
2022/03/11 09:40:48;;;;;;;;;12.83;11.33;;;;;3.17;32.76;101173.34;6326349;20;1823269;-43
2022/03/11 09:43:18;;;;;;;;;11.50;9.00;;;;;3.15;32.73;101179.56;6285191;20;2769036;-44
2022/03/11 09:50:54;;;;;;;;;19.00;14.00;;;;;2.99;33.36;101173.47;6303949;20;2797167;-43
2022/03/11 09:53:23;;;;;;;;;8.33;8.00;;;;;1.69;33.37;101170.44;6287749;20;3461781;-44
2022/03/11 09:55:51;;;;;;;;;18.50;12.00;;;;;2.45;33.26;101170.22;6314271;20;2796073;-42
2022/03/11 09:58:18;;;;;;;;;13.00;12.00;;;;;2.03;33.15;101175.69;6284026;20;2793052;-43
2022/03/11 10:00:50;;;;;;;;;7.75;5.25;;;;;3.08;32.26;101162.78;6306113;20;1823281;-43
2022/03/11 10:03:19;;;;;;;;;24.33;20.67;;;;;3.29;31.62;101165.28;6314819;20;2839877;-45
2022/03/11 10:05:53;;;;;;;;;10.67;9.67;;;;;2.34;32.74;101163.22;6356588;20;1816741;-45
2022/03/11 10:08:51;;;;;;;;;17.50;15.00;;;;;2.91;33.42;101165.56;6287217;20;2812921;-45
2022/03/11 10:11:27;;;;;;;;;11.00;11.00;;;;;3.01;33.20;101166.38;6282340;20;2766940;-43
2022/03/11 10:14:07;;;;;;;;;10.00;8.00;;;;;2.99;32.99;101163.72;6286246;20;3464825;-44
2022/03/11 10:16:37;;;;;;;;;7.50;6.00;;;;;2.92;33.53;101166.44;6318460;20;2742999;-45
2022/03/11 10:19:10;;;;;;;;;32.00;27.00;;;;;3.66;32.10;101166.72;6285949;20;2853377;-43
2022/03/11 10:21:47;;;;;;;;;10.75;8.75;;;;;2.00;33.03;101164.19;6302885;20;1821197;-43
2022/03/11 10:24:19;;;;;;;;;20.00;19.00;;;;;2.61;33.35;101156.91;6314231;20;2826390;-44
2022/03/11 10:26:54;;;;;;;;;17.50;13.00;;;;;3.70;31.40;101158.72;6284361;20;2800436;-44
2022/03/11 10:29:31;;;;;;;;;21.25;19.75;;;;;3.49;30.58;101151.84;6316036;20;2825636;-42
2022/03/11 10:32:00;;;;;;;;;15.00;14.00;;;;;3.19;31.10;101160.94;6285969;20;2791929;-44
2022/03/11 10:34:35;;;;;;;;;14.67;13.33;;;;;3.40;31.08;101164.34;6282216;20;3521130;-42
2022/03/11 10:37:12;;;;;;;;;27.67;19.67;;;;;3.65;31.64;101160.53;6314507;20;3564939;-43
2022/03/11 10:39:46;;;;;;;;;13.86;12.43;;;;;2.80;32.18;101162.97;6323315;20;1813837;-44
2022/03/11 10:42:24;;;;;;;;;96.00;80.00;;;;;3.45;31.72;101160.75;6316176;20;3663755;-44
2022/03/11 10:45:04;;;;;;;;;18.00;16.33;;;;;4.17;30.86;101148.50;6282347;20;2831565;-42
2022/03/11 10:47:39;;;;;;;;;45.00;36.33;;;;;3.41;30.18;101150.16;6316304;20;3602326;-43
2022/03/11 10:50:12;;;;;;;;;12.20;6.80;;;;;3.29;31.01;101145.81;6341288;20;2771094;-45
2022/03/11 10:52:45;;;;;;;;;11.00;8.00;;;;;3.27;31.11;101142.31;6285225;20;3477341;-43
2022/03/11 10:55:26;;;;;;;;;23.33;13.00;;;;;4.08;30.18;101140.59;6282923;20;3545012;-43
2022/03/11 10:57:58;;;;;;;;;5.75;5.75;;;;;3.08;30.16;101130.94;6334081;20;1823245;-45
2022/03/11 11:00:41;;;;;;;;;11.00;8.50;;;;;2.98;30.88;101142.53;6312837;20;2762837;-44
2022/03/11 11:03:11;;;;;;;;;11.50;7.50;;;;;3.61;31.54;101121.66;6302373;20;1823299;-46
2022/03/11 11:05:39;;;;;;;;;12.00;10.00;;;;;4.16;30.72;101121.03;6314428;20;2770182;-47
2022/03/11 11:08:10;;;;;;;;;8.00;8.00;;;;;4.32;29.92;101120.84;6328732;20;1810544;-44
2022/03/11 11:10:39;;;;;;;;;13.00;9.00;;;;;3.86;29.39;101113.41;6299863;20;1819096;-48
2022/03/11 11:13:11;;;;;;;;;9.50;8.00;;;;;3.80;28.13;101116.16;6317539;20;2750237;-42